Naniwa Maru No.21 — JG5648 — position and weather

sailwx.info

Track history (hours):
 
Tides and Currents Weather Stations Pressure Air Temp Water Temp Dewpoint Dewpoint Depression Visibility Wind Speed Wind Dir Waves Ship Positions

Naniwa Maru No.21

Last reported at 2017-Sep-19 21:55 UTC. Time now 2017-Sep-22 00:57 UTC.
Position N 34°08' E 135°06'.

Length 71 m; draft 5.5 m.

Type: Tanker. MMSI: 431301595.

Date/timePositionNaut miles runAvg speedWind from/ knotsBaromVisibWave heightAir tempDewpointWater temp
2017-Sep-19 21:55N 34°08' E 135°06'613.3
2017-Sep-19 21:30N 34°13' E 135°02'2112.0
2017-Sep-19 19:46N 34°34' E 135°03'411.6
2017-Sep-19 19:27N 34°37' E 135°01'  
2017-Sep-13 09:28N 34°35' E 135°04'611.9
2017-Sep-13 09:00N 34°30' E 135°04'1812.3
2017-Sep-13 07:33N 34°12' E 135°03'113.3
2017-Sep-13 07:29N 34°11' E 135°04'5 0.6
2017-Sep-12 23:27N 34°08' E 135°07'  
2017-Sep-10 13:18N 34°36' E 135°05'412.6
2017-Sep-10 13:00N 34°35' E 135°09'612.7
2017-Sep-10 12:30N 34°34' E 135°17'712.3
2017-Sep-10 11:58N 34°33' E 135°25'1 0.2
2017-Sep-10 08:08N 34°33' E 135°26'0 0.0
2017-Sep-10 07:38N 34°33' E 135°26'0 0.2
2017-Sep-10 07:15N 34°33' E 135°26'1 2.8
2017-Sep-10 06:53N 34°33' E 135°24'410.8
2017-Sep-10 06:30N 34°33' E 135°19'1 0.5
2017-Sep-10 03:41N 34°33' E 135°18'0 0.0
2017-Sep-10 03:23N 34°33' E 135°18'0 0.0
2017-Sep-10 02:58N 34°33' E 135°18'0 0.1
2017-Sep-10 02:29N 34°33' E 135°18'0 0.0
2017-Sep-10 02:00N 34°33' E 135°18'0 0.0
2017-Sep-10 01:30N 34°33' E 135°18'0 0.0
2017-Sep-10 00:54N 34°33' E 135°18'0 0.0
2017-Sep-10 00:30N 34°33' E 135°18'0 0.0
2017-Sep-09 23:53N 34°33' E 135°18'0 0.0
2017-Sep-09 23:30N 34°33' E 135°18'0 0.0
2017-Sep-09 23:00N 34°33' E 135°18'2 4.2
2017-Sep-09 22:30N 34°33' E 135°15'714.6
2017-Sep-09 22:00N 34°34' E 135°06'  
Track history (hours):
 
Tides and Currents Weather Stations Pressure Air Temp Water Temp Dewpoint Dewpoint Depression Visibility Wind Speed Wind Dir Waves Ship Positions

Naniwa Maru No.21

Last reported at 2017-Sep-19 21:55 UTC. Time now 2017-Sep-22 00:57 UTC.
Position N 34°08' E 135°06'.

Length 71 m; draft 5.5 m.

Type: Tanker. MMSI: 431301595.

Date/timePositionNaut miles runAvg speedWind from/ knotsBaromVisibWave heightAir tempDewpointWater temp
2017-Sep-19 21:55N 34°08' E 135°06'613.3
2017-Sep-19 21:30N 34°13' E 135°02'2112.0
2017-Sep-19 19:46N 34°34' E 135°03'411.6
2017-Sep-19 19:27N 34°37' E 135°01'  
2017-Sep-13 09:28N 34°35' E 135°04'611.9
2017-Sep-13 09:00N 34°30' E 135°04'1812.3
2017-Sep-13 07:33N 34°12' E 135°03'113.3
2017-Sep-13 07:29N 34°11' E 135°04'5 0.6
2017-Sep-12 23:27N 34°08' E 135°07'  
2017-Sep-10 13:18N 34°36' E 135°05'412.6
2017-Sep-10 13:00N 34°35' E 135°09'612.7
2017-Sep-10 12:30N 34°34' E 135°17'712.3
2017-Sep-10 11:58N 34°33' E 135°25'1 0.2
2017-Sep-10 08:08N 34°33' E 135°26'0 0.0
2017-Sep-10 07:38N 34°33' E 135°26'0 0.2
2017-Sep-10 07:15N 34°33' E 135°26'1 2.8
2017-Sep-10 06:53N 34°33' E 135°24'410.8
2017-Sep-10 06:30N 34°33' E 135°19'1 0.5
2017-Sep-10 03:41N 34°33' E 135°18'0 0.0
2017-Sep-10 03:23N 34°33' E 135°18'0 0.0
2017-Sep-10 02:58N 34°33' E 135°18'0 0.1
2017-Sep-10 02:29N 34°33' E 135°18'0 0.0
2017-Sep-10 02:00N 34°33' E 135°18'0 0.0
2017-Sep-10 01:30N 34°33' E 135°18'0 0.0
2017-Sep-10 00:54N 34°33' E 135°18'0 0.0
2017-Sep-10 00:30N 34°33' E 135°18'0 0.0
2017-Sep-09 23:53N 34°33' E 135°18'0 0.0
2017-Sep-09 23:30N 34°33' E 135°18'0 0.0
2017-Sep-09 23:00N 34°33' E 135°18'2 4.2
2017-Sep-09 22:30N 34°33' E 135°15'714.6
2017-Sep-09 22:00N 34°34' E 135°06'  

Dump ship's entire track history